Time;durP1;ratioP1;P1;durP2;ratioP2;P2;SDS_P1;SDS_P2;PMS_P1;PMS_P2;Temp;Humidity;BMP_temperature;BMP_pressure;BME280_temperature;BME280_humidity;BME280_pressure;Samples;Min_cycle;Max_cycle;Signal;HPM_P1;HPM_P2
2022/08/12 00:43:19;;;;;;;9.30;2.53;;;15.40;1.00;;;;;;4917392;29;20500;-82
2022/08/12 00:46:30;;;;;;;2.83;2.28;;;15.60;99.90;;;;;;4917623;29;20352;-82
2022/08/12 00:49:22;;;;;;;4.95;2.38;;;15.70;99.90;;;;;;4911473;29;20055;-82
2022/08/12 00:52:12;;;;;;;6.07;2.13;;;15.80;99.90;;;;;;4915321;29;20048;-82
2022/08/12 00:55:01;;;;;;;3.03;2.33;;;15.90;99.90;;;;;;4909450;29;20044;-82
2022/08/12 00:57:52;;;;;;;4.30;1.98;;;16.00;99.90;;;;;;4910903;29;20450;-83
2022/08/12 01:00:41;;;;;;;3.80;2.50;;;16.10;99.90;;;;;;4907486;29;20048;-83
2022/08/12 01:11:27;;;;;;;4.57;2.80;;;16.00;99.90;;;;;;4916879;29;20048;-83
2022/08/12 01:13:01;;;;;;;5.18;2.17;;;16.20;99.90;;;;;;4915050;29;20103;-82
2022/08/12 01:16:07;;;;;;;5.22;2.45;;;16.20;99.90;;;;;;4910786;29;20334;-82
2022/08/12 01:18:56;;;;;;;3.53;2.45;;;16.20;99.90;;;;;;4909216;29;20048;-83
2022/08/12 01:21:53;;;;;;;4.13;2.38;;;16.20;99.90;;;;;;4914465;29;20131;-83
2022/08/12 01:25:06;;;;;;;2.78;2.40;;;16.20;99.90;;;;;;4913791;29;20262;-83
2022/08/12 01:28:00;;;;;;;7.17;2.57;;;16.10;99.90;;;;;;4895663;29;20071;-83
2022/08/12 01:30:49;;;;;;;4.30;2.40;;;16.10;99.90;;;;;;4916247;29;20299;-82
2022/08/12 01:33:54;;;;;;;4.25;2.33;;;16.10;99.90;;;;;;4914476;29;20442;-83
2022/08/12 01:36:49;;;;;;;2.83;2.28;;;16.00;99.90;;;;;;4919027;29;20047;-82
2022/08/12 01:39:51;;;;;;;3.88;2.47;;;16.00;1.00;;;;;;4917708;29;20499;-82
2022/08/12 01:43:05;;;;;;;5.85;2.40;;;15.90;1.00;;;;;;4913823;29;20092;-83
2022/08/12 01:46:00;;;;;;;8.00;3.15;;;15.90;1.00;;;;;;4905244;29;20237;-83
2022/08/12 01:49:18;;;;;;;4.05;2.60;;;15.70;1.00;;;;;;4910825;29;20048;-83
2022/08/12 01:52:33;;;;;;;4.88;2.80;;;15.50;1.00;;;;;;4910900;29;20059;-82
2022/08/12 01:55:36;;;;;;;;;;;15.30;1.00;;;;;;4916425;29;20346;-82
2022/08/12 01:59:44;;;;;;;3.50;2.22;;;15.10;1.00;;;;;;4918113;29;19931;-83
2022/08/12 02:01:40;;;;;;;4.70;2.53;;;14.90;1.00;;;;;;4915140;29;20339;-81
2022/08/12 02:11:28;;;;;;;5.97;2.40;;;14.60;1.00;;;;;;4904714;29;20088;-83
2022/08/12 02:14:40;;;;;;;4.72;3.38;;;14.50;1.00;;;;;;4928377;29;20123;-82
2022/08/12 02:17:49;;;;;;;4.80;2.70;;;14.40;1.00;;;;;;4909957;29;20044;-83
2022/08/12 02:20:48;;;;;;;3.50;2.30;;;14.30;1.00;;;;;;4919603;29;20547;-81
2022/08/12 02:23:39;;;;;;;3.33;2.50;;;14.40;1.00;;;;;;4925756;29;20044;-82
2022/08/12 02:26:31;;;;;;;5.05;2.63;;;14.40;1.00;;;;;;4921134;29;20108;-82
2022/08/12 02:29:19;;;;;;;6.90;2.75;;;14.50;1.00;;;;;;4915283;29;20127;-82
2022/08/12 02:32:07;;;;;;;3.38;2.47;;;14.60;1.00;;;;;;4917638;29;20059;-81
2022/08/12 02:34:56;;;;;;;3.40;2.58;;;14.60;1.00;;;;;;4898465;29;20048;-83
2022/08/12 02:37:44;;;;;;;5.05;2.40;;;14.50;1.00;;;;;;4915414;29;20120;-82
2022/08/12 02:40:35;;;;;;;4.15;2.20;;;14.50;1.00;;;;;;4919516;29;20044;-82
2022/08/12 02:43:58;;;;;;;3.35;2.60;;;14.50;1.00;;;;;;4908535;29;20068;-82
2022/08/12 02:46:59;;;;;;;2.70;2.40;;;14.50;1.00;;;;;;4911020;29;20134;-83
2022/08/12 02:49:54;;;;;;;6.13;2.38;;;14.30;1.00;;;;;;4911790;29;20107;-83
2022/08/12 02:52:42;;;;;;;4.72;2.63;;;14.50;1.00;;;;;;4929404;29;20076;-82
2022/08/12 02:55:38;;;;;;;4.28;2.50;;;14.70;1.00;;;;;;4909491;29;20044;-82
2022/08/12 02:58:26;;;;;;;5.65;2.50;;;14.70;1.00;;;;;;4906078;29;20059;-83
2022/08/12 03:01:27;;;;;;;4.35;2.50;;;14.70;1.00;;;;;;4921057;29;20051;-83
2022/08/12 03:04:25;;;;;;;4.95;2.55;;;14.70;1.00;;;;;;4916828;29;20461;-83
2022/08/12 03:07:27;;;;;;;3.97;2.50;;;14.60;1.00;;;;;;4899496;29;20132;-82
2022/08/12 03:10:41;;;;;;;3.25;2.42;;;14.60;1.00;;;;;;4913245;29;20093;-84
2022/08/12 03:13:37;;;;;;;5.85;2.67;;;14.60;1.00;;;;;;4907844;29;20044;-84
2022/08/12 03:16:28;;;;;;;4.00;2.95;;;14.40;1.00;;;;;;4919225;29;20066;-83
2022/08/12 03:19:23;;;;;;;4.97;2.83;;;14.30;1.00;;;;;;4912060;29;20080;-84
2022/08/12 03:22:14;;;;;;;6.57;2.92;;;14.20;1.00;;;;;;4917248;29;20036;-82
2022/08/12 03:25:07;;;;;;;2.85;2.40;;;14.10;1.00;;;;;;4915976;29;20059;-83
2022/08/12 03:27:59;;;;;;;5.53;2.60;;;14.10;1.00;;;;;;4916979;29;20428;-83
2022/08/12 03:30:50;;;;;;;3.15;2.85;;;14.20;1.00;;;;;;4898790;29;20053;-82
2022/08/12 03:33:47;;;;;;;4.97;2.70;;;14.20;1.00;;;;;;4921145;29;20067;-83
2022/08/12 03:36:53;;;;;;;4.50;2.95;;;14.10;1.00;;;;;;4914592;29;20059;-83
2022/08/12 03:39:44;;;;;;;;;;;14.10;1.00;;;;;;4913264;29;20380;-83
2022/08/12 03:42:39;;;;;;;5.60;2.92;;;13.90;1.00;;;;;;4920530;29;20363;-82
2022/08/12 04:01:21;;;;;;;3.15;2.72;;;13.80;1.00;;;;;;4918458;29;20051;-84
2022/08/12 04:04:09;;;;;;;3.33;2.53;;;13.70;1.00;;;;;;4919688;29;20070;-83
2022/08/12 04:06:56;;;;;;;4.47;3.20;;;13.60;1.00;;;;;;4907643;29;20059;-83
2022/08/12 04:09:52;;;;;;;4.15;3.08;;;13.60;1.00;;;;;;4916383;29;20521;-83
2022/08/12 04:13:18;;;;;;;4.70;3.22;;;13.60;1.00;;;;;;4925161;29;20052;-83
2022/08/12 04:16:12;;;;;;;4.75;2.72;;;13.50;1.00;;;;;;4929919;29;20058;-84
2022/08/12 04:19:04;;;;;;;5.75;2.83;;;13.40;1.00;;;;;;4924505;29;20062;-83
2022/08/12 04:21:54;;;;;;;4.93;3.08;;;13.40;1.00;;;;;;4920525;29;20097;-85
2022/08/12 04:24:52;;;;;;;5.53;2.78;;;13.40;1.00;;;;;;4918209;29;20051;-83
2022/08/12 04:27:45;;;;;;;4.88;2.78;;;13.50;1.00;;;;;;4917432;29;20048;-86
2022/08/12 04:30:33;;;;;;;;;;;13.60;1.00;;;;;;4915343;29;20367;-83
2022/08/12 04:33:20;;;;;;;8.23;3.20;;;13.70;1.00;;;;;;4916863;29;19923;-82
2022/08/12 04:36:08;;;;;;;4.88;3.15;;;13.80;1.00;;;;;;4903752;29;20044;-83
2022/08/12 04:38:57;;;;;;;4.93;2.88;;;13.90;1.00;;;;;;4934552;29;20052;-84
2022/08/12 04:41:45;;;;;;;9.38;3.05;;;13.80;1.00;;;;;;4916575;29;20382;-84
2022/08/12 04:44:44;;;;;;;6.03;3.30;;;13.70;1.00;;;;;;4903470;29;20055;-83
2022/08/12 04:47:32;;;;;;;4.47;3.17;;;13.70;1.00;;;;;;4912458;29;20445;-83
2022/08/12 04:50:26;;;;;;;6.82;2.80;;;13.80;1.00;;;;;;4912051;29;20489;-85
2022/08/12 04:53:23;;;;;;;4.68;2.70;;;13.90;1.00;;;;;;4906891;29;20052;-84
2022/08/12 04:56:13;;;;;;;7.00;3.08;;;14.10;1.00;;;;;;4915572;29;20043;-83
2022/08/12 04:59:03;;;;;;;6.53;3.25;;;14.30;1.00;;;;;;4920616;29;20358;-84
2022/08/12 05:01:53;;;;;;;5.57;2.85;;;14.30;1.00;;;;;;4915851;29;20047;-83
2022/08/12 05:04:46;;;;;;;7.72;3.25;;;14.30;1.00;;;;;;4915128;29;20060;-82
2022/08/12 05:07:40;;;;;;;4.75;2.92;;;14.60;1.00;;;;;;4917565;29;20059;-82
2022/08/12 05:10:45;;;;;;;3.67;2.70;;;14.80;1.00;;;;;;4913533;29;20066;-83
2022/08/12 05:13:39;;;;;;;5.60;3.20;;;15.00;1.00;;;;;;4916168;29;20051;-83
2022/08/12 05:16:29;;;;;;;4.68;3.40;;;15.20;1.00;;;;;;4911807;29;20052;-85
2022/08/12 05:19:22;;;;;;;3.67;2.42;;;15.30;1.00;;;;;;4910897;29;20067;-86
2022/08/12 05:22:09;;;;;;;5.18;2.92;;;15.30;1.00;;;;;;4905753;29;20187;-86
2022/08/12 05:24:57;;;;;;;4.20;2.63;;;15.40;1.00;;;;;;4916563;29;20441;-86
2022/08/12 05:27:46;;;;;;;3.47;2.90;;;15.40;1.00;;;;;;4917354;29;20067;-84
2022/08/12 05:33:36;;;;;;;9.02;3.55;;;15.60;1.00;;;;;;4969749;23;20051;-83
2022/08/12 05:36:23;;;;;;;6.20;3.92;;;15.60;1.00;;;;;;4939501;29;20084;-82
2022/08/12 05:39:10;;;;;;;4.40;3.17;;;15.40;1.00;;;;;;4955444;29;20365;-82
2022/08/12 05:41:58;;;;;;;6.40;3.63;;;15.40;1.00;;;;;;4939226;29;20082;-82
2022/08/12 05:44:45;;;;;;;5.53;3.47;;;15.30;1.00;;;;;;4957118;28;20113;-81
2022/08/12 05:47:37;;;;;;;6.15;2.83;;;15.40;1.00;;;;;;4955185;29;20051;-80
2022/08/12 05:50:44;;;;;;;5.78;2.85;;;15.60;1.00;;;;;;4953290;29;20051;-85
2022/08/12 05:53:31;;;;;;;5.65;3.10;;;15.80;1.00;;;;;;4948064;28;20066;-87
2022/08/12 05:56:25;;;;;;;4.28;2.50;;;15.90;1.00;;;;;;4953974;29;20051;-82
2022/08/12 05:59:12;;;;;;;4.60;2.60;;;16.10;1.00;;;;;;4942076;28;20083;-82
2022/08/12 06:02:02;;;;;;;3.13;2.40;;;16.20;1.00;;;;;;4951190;28;20076;-83
2022/08/12 06:04:59;;;;;;;4.30;2.63;;;16.40;1.00;;;;;;4952501;29;20078;-82
2022/08/12 06:07:55;;;;;;;6.07;2.60;;;16.50;1.00;;;;;;4954770;29;20051;-83
2022/08/12 06:10:51;;;;;;;5.93;2.60;;;16.60;1.00;;;;;;4943826;29;20126;-81
2022/08/12 06:13:40;;;;;;;6.97;2.50;;;16.70;1.00;;;;;;4940533;29;20495;-81
2022/08/12 06:16:42;;;;;;;3.63;2.83;;;16.70;1.00;;;;;;4955489;29;20453;-81
2022/08/12 06:19:30;;;;;;;4.70;2.58;;;16.90;1.00;;;;;;4961789;28;20051;-81
2022/08/12 06:22:41;;;;;;;4.93;3.25;;;16.90;1.00;;;;;;4958464;29;20047;-81
2022/08/12 06:25:33;;;;;;;5.43;2.42;;;17.10;1.00;;;;;;4965680;29;20039;-84
2022/08/12 06:28:21;;;;;;;6.35;2.33;;;17.20;1.00;;;;;;4940898;29;20054;-83
2022/08/12 06:31:14;;;;;;;4.63;2.60;;;17.30;1.00;;;;;;4939483;29;20105;-84
2022/08/12 06:34:13;;;;;;;2.85;2.53;;;17.40;1.00;;;;;;4941161;29;20043;-83
2022/08/12 06:37:22;;;;;;;3.97;2.35;;;17.60;1.00;;;;;;4955799;29;20126;-83
2022/08/12 06:40:13;;;;;;;5.75;2.50;;;17.70;1.00;;;;;;4965344;28;20472;-82
2022/08/12 06:43:02;;;;;;;7.88;2.55;;;17.80;1.00;;;;;;4955551;28;20059;-82
2022/08/12 06:45:50;;;;;;;4.95;2.40;;;17.90;1.00;;;;;;4934634;29;20051;-81
2022/08/12 06:48:41;;;;;;;10.48;2.72;;;18.00;1.00;;;;;;4940854;29;20039;-79
2022/08/12 06:51:30;;;;;;;3.55;2.00;;;18.20;1.00;;;;;;4956345;28;20062;-82
2022/08/12 06:54:18;;;;;;;3.15;2.55;;;18.40;1.00;;;;;;4959710;29;20370;-83
2022/08/12 06:57:18;;;;;;;4.03;2.15;;;18.70;1.00;;;;;;4956316;29;20044;-83
2022/08/12 07:00:29;;;;;;;3.50;2.10;;;19.10;1.00;;;;;;4947557;29;20043;-83
2022/08/12 07:03:28;;;;;;;9.88;2.10;;;19.40;1.00;;;;;;4955158;29;20066;-84
2022/08/12 07:06:18;;;;;;;4.88;2.03;;;19.60;1.00;;;;;;4943320;29;20150;-84
2022/08/12 07:09:05;;;;;;;8.60;2.40;;;20.00;1.00;;;;;;4954298;29;20055;-82
2022/08/12 07:11:53;;;;;;;7.18;2.00;;;20.40;99.90;;;;;;4949382;29;20464;-81
2022/08/12 07:14:40;;;;;;;6.53;2.00;;;20.70;99.90;;;;;;4943144;29;20157;-83
2022/08/12 07:17:35;;;;;;;3.45;1.98;;;21.20;99.90;;;;;;4953913;29;20062;-83
2022/08/12 07:20:28;;;;;;;7.20;1.98;;;21.80;99.90;;;;;;4957611;28;20212;-84
2022/08/12 07:23:40;;;;;;;6.65;2.08;;;22.20;99.90;;;;;;4946125;29;20161;-84
2022/08/12 07:26:28;;;;;;;2.60;1.77;;;22.80;99.90;;;;;;4956122;29;20130;-83
2022/08/12 07:29:15;;;;;;;3.10;1.63;;;23.20;99.90;;;;;;4944307;29;20059;-85
2022/08/12 07:32:04;;;;;;;5.75;1.90;;;23.30;99.90;;;;;;4960333;29;20066;-86
2022/08/12 07:34:53;;;;;;;3.60;1.90;;;23.70;99.90;;;;;;4962420;29;20137;-83
2022/08/12 07:37:41;;;;;;;3.25;1.55;;;23.80;99.90;;;;;;4961259;28;20059;-82
2022/08/12 07:40:28;;;;;;;4.50;2.03;;;24.10;99.90;;;;;;4956820;29;20055;-83
2022/08/12 07:43:16;;;;;;;6.18;1.70;;;24.50;99.90;;;;;;4954959;29;20039;-83
2022/08/12 07:46:07;;;;;;;3.00;1.83;;;24.90;99.90;;;;;;4943724;29;20087;-82
2022/08/12 07:49:00;;;;;;;5.57;1.75;;;25.40;99.90;;;;;;4942910;29;20055;-83
2022/08/12 07:51:48;;;;;;;3.90;1.70;;;25.50;99.90;;;;;;4958900;29;20059;-85
2022/08/12 07:54:42;;;;;;;6.18;1.85;;;25.40;99.90;;;;;;4947334;29;20059;-85
2022/08/12 07:57:35;;;;;;;3.72;1.60;;;25.90;99.90;;;;;;4945422;29;20047;-84
2022/08/12 08:00:30;;;;;;;5.32;1.90;;;26.60;99.90;;;;;;4954178;29;20050;-86
2022/08/12 08:03:17;;;;;;;4.95;1.60;;;27.20;99.90;;;;;;4949866;29;20472;-87
2022/08/12 08:06:14;;;;;;;5.07;1.90;;;27.40;99.90;;;;;;4959195;29;20062;-87
2022/08/12 08:09:07;;;;;;;3.72;1.70;;;27.00;99.90;;;;;;4938733;29;20346;-85
2022/08/12 08:15:08;;;;;;;2.92;1.60;;;27.20;99.90;;;;;;4962169;28;20074;-85
2022/08/12 08:18:01;;;;;;;5.70;1.70;;;27.40;99.90;;;;;;4941738;29;20051;-85
2022/08/12 08:20:48;;;;;;;2.75;1.30;;;27.70;99.90;;;;;;4954220;29;20122;-84
2022/08/12 08:26:55;;;;;;;3.45;1.35;;;28.10;99.90;;;;;;4953986;28;20091;-82
2022/08/12 08:29:47;;;;;;;2.40;1.40;;;28.30;99.90;;;;;;4941589;29;20062;-87
2022/08/12 08:32:34;;;;;;;6.00;1.80;;;28.60;99.90;;;;;;4952079;29;20054;-84
2022/08/12 08:35:28;;;;;;;5.10;1.85;;;29.00;99.90;;;;;;4944700;29;20039;-84
2022/08/12 08:38:33;;;;;;;4.07;1.63;;;29.10;99.90;;;;;;4951901;29;20438;-85
2022/08/12 08:44:49;;;;;;;2.67;1.25;;;29.30;99.90;;;;;;4953315;29;20141;-83
2022/08/12 08:47:45;;;;;;;2.53;1.40;;;29.20;99.90;;;;;;4940994;29;20337;-84
2022/08/12 08:50:32;;;;;;;3.78;1.50;;;29.20;99.90;;;;;;4943703;29;20063;-84
2022/08/12 08:53:22;;;;;;;2.85;1.95;;;29.50;99.90;;;;;;4944759;29;20134;-83
2022/08/12 08:56:09;;;;;;;5.43;1.45;;;29.30;99.90;;;;;;4942128;29;20051;-84
2022/08/12 08:59:06;;;;;;;3.10;1.42;;;29.00;99.90;;;;;;4956913;29;20492;-84
2022/08/12 09:01:56;;;;;;;4.40;1.40;;;29.30;99.90;;;;;;4954466;29;20044;-84
2022/08/12 09:04:44;;;;;;;2.33;1.00;;;29.70;99.90;;;;;;4954953;29;20467;-86
2022/08/12 09:07:55;;;;;;;3.05;1.40;;;29.70;99.90;;;;;;4957713;29;20190;-82
2022/08/12 09:13:26;;;;;;;1.65;1.30;;;29.80;99.90;;;;;;4954459;29;20043;-84
2022/08/12 09:14:28;;;;;;;3.03;1.38;;;29.90;99.90;;;;;;4949941;29;20094;-83
2022/08/12 09:17:19;;;;;;;3.85;1.30;;;30.20;99.90;;;;;;4947964;29;20062;-85
2022/08/12 09:20:29;;;;;;;4.20;1.40;;;30.90;99.90;;;;;;4945216;29;20373;-85
2022/08/12 09:23:17;;;;;;;4.05;1.40;;;30.20;99.90;;;;;;4954733;29;20047;-86
2022/08/12 09:26:26;;;;;;;1.77;1.30;;;29.90;99.90;;;;;;4951982;28;20472;-83
2022/08/12 09:29:19;;;;;;;4.15;1.67;;;29.50;99.90;;;;;;4931400;29;20141;-83
2022/08/12 09:32:28;;;;;;;2.28;1.48;;;29.30;99.90;;;;;;4938008;29;20081;-82
2022/08/12 09:35:45;;;;;;;6.32;1.73;;;29.80;99.90;;;;;;4950983;28;20047;-81
2022/08/12 09:38:52;;;;;;;2.50;1.58;;;30.50;99.90;;;;;;4950327;29;20043;-82
2022/08/12 09:45:19;;;;;;;3.38;1.48;;;30.50;99.90;;;;;;4939826;29;20058;-81
2022/08/12 09:45:24;;;;;;;4.22;1.55;;;31.20;99.90;;;;;;4951033;29;20047;-82
2022/08/12 09:48:32;;;;;;;3.38;1.30;;;31.60;99.90;;;;;;4952040;29;20385;-80
2022/08/12 09:51:22;;;;;;;3.30;1.27;;;31.80;99.90;;;;;;4937779;29;20055;-81
2022/08/12 09:54:11;;;;;;;2.42;1.58;;;31.70;99.90;;;;;;4953401;28;20047;-81
2022/08/12 09:57:21;;;;;;;1.75;1.17;;;31.10;99.90;;;;;;4955385;28;20466;-83
2022/08/12 10:00:28;;;;;;;2.75;1.40;;;31.20;99.90;;;;;;4940148;29;20043;-80
2022/08/12 10:03:35;;;;;;;2.38;1.23;;;30.70;99.90;;;;;;4955776;28;20473;-82
2022/08/12 10:06:42;;;;;;;3.45;1.40;;;31.50;99.90;;;;;;4955802;28;20043;-81
2022/08/12 10:09:44;;;;;;;3.70;1.50;;;31.70;99.90;;;;;;4943192;29;20123;-80
2022/08/12 10:15:59;;;;;;;5.80;1.60;;;32.80;99.90;;;;;;4947449;29;20096;-81
2022/08/12 10:18:58;;;;;;;2.17;1.20;;;32.10;99.90;;;;;;4938853;29;20353;-82
2022/08/12 10:21:46;;;;;;;4.82;1.30;;;32.10;99.90;;;;;;4953770;29;20057;-82
2022/08/12 10:24:44;;;;;;;2.30;1.10;;;32.50;99.90;;;;;;4952904;29;20345;-80
2022/08/12 10:30:56;;;;;;;2.33;1.30;;;32.30;99.90;;;;;;4945748;29;20055;-80
2022/08/12 10:44:06;;;;;;;3.80;1.63;;;32.90;99.90;;;;;;5144943;27;20399;-85
2022/08/12 10:46:56;;;;;;;2.00;1.40;;;31.30;99.90;;;;;;5100507;28;20093;-82
2022/08/12 10:49:47;;;;;;;3.13;1.27;;;31.50;99.90;;;;;;5104343;28;20063;-80
2022/08/12 10:52:51;;;;;;;4.07;1.23;;;31.70;99.90;;;;;;5095553;28;20116;-81
2022/08/12 10:55:38;;;;;;;2.90;1.23;;;32.20;99.90;;;;;;5114395;27;20150;-81
2022/08/12 10:58:35;;;;;;;5.00;1.23;;;32.80;99.90;;;;;;5108849;28;20056;-81
2022/08/12 11:01:22;;;;;;;2.03;1.13;;;33.50;99.90;;;;;;5097007;28;20431;-82
2022/08/12 11:04:32;;;;;;;3.33;1.13;;;33.60;99.90;;;;;;5116050;28;20040;-80
2022/08/12 11:07:37;;;;;;;2.40;1.13;;;33.40;99.90;;;;;;5099423;28;20158;-81
2022/08/12 11:10:44;;;;;;;1.42;1.10;;;33.00;99.90;;;;;;5122309;28;20416;-82
2022/08/12 11:13:31;;;;;;;4.45;1.25;;;32.80;99.90;;;;;;5112315;28;20385;-81
2022/08/12 11:16:34;;;;;;;2.00;1.63;;;33.40;99.90;;;;;;5129477;27;20207;-82
2022/08/12 11:19:25;;;;;;;1.63;1.20;;;32.70;99.90;;;;;;5128459;28;20036;-83
2022/08/12 11:22:18;;;;;;;2.28;1.15;;;33.20;99.90;;;;;;5129377;27;20043;-81
2022/08/12 11:25:10;;;;;;;6.88;1.50;;;32.90;99.90;;;;;;5114150;27;20137;-81
2022/08/12 11:27:59;;;;;;;4.07;1.42;;;33.50;99.90;;;;;;5129146;28;20147;-82
2022/08/12 11:30:47;;;;;;;1.33;1.10;;;34.40;99.90;;;;;;5119819;27;20426;-82
2022/08/12 11:33:40;;;;;;;4.13;1.45;;;34.50;99.90;;;;;;5129175;27;20031;-81
2022/08/12 11:36:59;;;;;;;1.77;1.25;;;34.40;99.90;;;;;;5123946;27;20039;-81
2022/08/12 11:39:50;;;;;;;2.90;1.38;;;34.40;99.90;;;;;;5133744;27;20035;-81
2022/08/12 11:42:52;;;;;;;;;;;34.20;99.90;;;;;;5131619;28;20118;-81
2022/08/12 11:45:40;;;;;;;2.28;1.13;;;34.40;99.90;;;;;;5113242;27;19930;-80
2022/08/12 11:48:39;;;;;;;3.72;1.30;;;34.90;99.90;;;;;;5118589;27;20082;-81
2022/08/12 11:51:41;;;;;;;3.70;1.30;;;35.80;99.90;;;;;;5096481;28;20099;-81
2022/08/12 11:54:29;;;;;;;2.05;0.90;;;36.70;99.90;;;;;;5125682;27;20078;-81
2022/08/12 11:57:17;;;;;;;3.20;1.02;;;33.60;99.90;;;;;;5115608;27;20042;-80
2022/08/12 12:00:28;;;;;;;5.55;1.17;;;34.00;99.90;;;;;;5113071;28;20186;-82
2022/08/12 12:03:35;;;;;;;2.55;1.00;;;35.40;99.90;;;;;;5116076;28;20059;-82
2022/08/12 12:06:32;;;;;;;3.03;1.15;;;35.60;99.90;;;;;;5102101;27;20981;-81
2022/08/12 12:09:19;;;;;;;4.75;0.90;;;36.30;99.90;;;;;;5121247;27;20055;-81
2022/08/12 12:12:08;;;;;;;1.70;1.00;;;36.30;99.90;;;;;;5121806;27;20040;-81
2022/08/12 12:14:55;;;;;;;1.95;1.30;;;35.40;99.90;;;;;;5101766;28;20469;-81
2022/08/12 12:17:53;;;;;;;1.85;1.00;;;35.70;99.90;;;;;;5100558;28;20411;-81
2022/08/12 12:20:42;;;;;;;2.03;0.93;;;35.80;99.90;;;;;;5107643;28;20044;-79
2022/08/12 12:23:33;;;;;;;4.20;1.40;;;34.60;99.90;;;;;;5107915;28;20153;-81
2022/08/12 12:26:22;;;;;;;3.60;1.10;;;34.60;99.90;;;;;;5114747;27;20035;-80
2022/08/12 12:29:24;;;;;;;2.40;1.10;;;35.00;99.90;;;;;;5110257;27;20051;-81
2022/08/12 12:32:31;;;;;;;2.40;0.82;;;36.20;99.90;;;;;;5107566;28;20044;-82
2022/08/12 12:35:21;;;;;;;7.82;1.73;;;36.80;99.90;;;;;;5111508;28;20039;-81
2022/08/12 12:38:28;;;;;;;3.58;1.05;;;35.60;99.90;;;;;;5119197;27;20105;-81
2022/08/12 12:41:15;;;;;;;1.85;1.05;;;35.00;99.90;;;;;;5116569;28;20047;-80
2022/08/12 12:44:03;;;;;;;2.10;1.10;;;35.00;99.90;;;;;;5116784;27;20107;-82
2022/08/12 12:46:50;;;;;;;2.65;1.10;;;33.80;99.90;;;;;;5099586;27;20044;-80
2022/08/12 12:49:41;;;;;;;4.93;1.10;;;34.10;99.90;;;;;;5101902;27;20413;-81
2022/08/12 12:52:30;;;;;;;2.70;1.20;;;34.40;99.90;;;;;;5112188;28;20446;-81
2022/08/12 12:55:19;;;;;;;4.72;1.40;;;33.00;99.90;;;;;;5106953;28;20160;-81
2022/08/12 12:58:15;;;;;;;2.03;1.08;;;33.40;99.90;;;;;;5107083;27;20085;-80
2022/08/12 13:01:05;;;;;;;4.93;1.20;;;34.60;99.90;;;;;;5113786;27;20468;-81
2022/08/12 13:04:15;;;;;;;1.35;1.25;;;34.30;99.90;;;;;;5116773;27;20127;-81
2022/08/12 13:07:03;;;;;;;3.00;1.25;;;32.50;99.90;;;;;;5116098;27;20044;-80
2022/08/12 13:09:52;;;;;;;2.10;1.35;;;31.50;99.90;;;;;;5114031;27;20048;-81
2022/08/12 13:12:48;;;;;;;1.95;1.05;;;30.70;99.90;;;;;;5112192;28;20343;-82
2022/08/12 13:15:36;;;;;;;2.50;1.40;;;29.90;99.90;;;;;;5102395;28;20385;-82
2022/08/12 13:18:36;;;;;;;2.92;1.48;;;29.20;99.90;;;;;;5115203;27;20127;-80
2022/08/12 13:21:31;;;;;;;4.75;1.48;;;29.60;99.90;;;;;;5117618;27;20035;-84
2022/08/12 13:24:28;;;;;;;3.42;1.10;;;30.70;99.90;;;;;;5100760;28;20070;-82
2022/08/12 13:27:21;;;;;;;4.53;1.40;;;32.30;99.90;;;;;;5100751;28;20054;-81
2022/08/12 13:30:19;;;;;;;1.30;1.20;;;34.10;99.90;;;;;;5120942;27;20483;-81
2022/08/12 13:33:14;;;;;;;4.40;1.48;;;34.50;99.90;;;;;;5113255;28;20039;-81
2022/08/12 13:36:06;;;;;;;1.23;1.00;;;34.30;99.90;;;;;;5104987;28;20136;-81
2022/08/12 13:38:58;;;;;;;2.20;0.93;;;33.40;99.90;;;;;;5101806;28;20358;-82
2022/08/12 13:41:45;;;;;;;2.13;1.05;;;32.30;99.90;;;;;;5087144;28;20458;-82
2022/08/12 13:44:35;;;;;;;3.80;1.02;;;32.70;99.90;;;;;;5112355;28;20944;-79
2022/08/12 13:47:23;;;;;;;4.03;1.48;;;32.40;99.90;;;;;;5104132;28;20471;-82
2022/08/12 13:50:11;;;;;;;2.88;1.00;;;32.50;99.90;;;;;;5095142;27;20062;-79
2022/08/12 13:53:02;;;;;;;3.03;1.05;;;33.90;99.90;;;;;;5100169;28;20454;-89
2022/08/12 13:56:10;;;;;;;2.70;1.10;;;34.70;99.90;;;;;;5103766;28;20039;-90
2022/08/12 13:58:58;;;;;;;5.82;1.17;;;34.20;99.90;;;;;;5093503;28;20109;-87
2022/08/12 14:01:50;;;;;;;2.17;1.17;;;32.90;99.90;;;;;;5121134;27;20043;-90
2022/08/12 14:04:41;;;;;;;5.63;1.50;;;31.60;99.90;;;;;;5121363;28;20111;-90
2022/08/12 14:07:32;;;;;;;3.55;1.20;;;30.20;99.90;;;;;;5118708;28;20048;-90
2022/08/12 14:10:38;;;;;;;1.70;1.10;;;31.30;99.90;;;;;;5121770;27;20070;-89
2022/08/12 14:13:38;;;;;;;4.38;1.23;;;33.00;99.90;;;;;;5117279;28;20239;-86
2022/08/12 14:16:45;;;;;;;2.35;1.02;;;34.10;99.90;;;;;;5122928;27;20067;-90
2022/08/12 14:20:12;;;;;;;2.60;1.17;;;34.80;99.90;;;;;;5121498;27;20050;-87
2022/08/12 14:22:50;;;;;;;3.33;1.00;;;35.10;99.90;;;;;;5113085;28;20111;-87
2022/08/12 14:25:38;;;;;;;2.70;1.38;;;34.90;99.90;;;;;;5116629;28;20048;-90
2022/08/12 14:28:31;;;;;;;6.53;1.00;;;35.50;99.90;;;;;;5118985;28;20052;-91
2022/08/12 14:31:20;;;;;;;6.68;1.27;;;35.50;99.90;;;;;;5112123;28;20052;-91
2022/08/12 14:34:10;;;;;;;3.78;1.17;;;35.70;99.90;;;;;;5127581;28;20039;-90
2022/08/12 14:37:01;;;;;;;1.57;1.20;;;33.90;99.90;;;;;;5119962;28;20111;-91
2022/08/12 14:39:53;;;;;;;5.50;1.33;;;32.00;99.90;;;;;;5115791;28;20040;-92
2022/08/12 14:42:42;;;;;;;2.70;1.42;;;31.10;99.90;;;;;;5115468;28;20043;-91
2022/08/12 14:45:35;;;;;;;4.65;1.25;;;30.20;99.90;;;;;;5116867;28;20139;-90
2022/08/12 14:48:35;;;;;;;4.38;1.33;;;31.40;99.90;;;;;;5114131;28;20054;-90
2022/08/12 14:51:27;;;;;;;8.07;1.38;;;33.10;99.90;;;;;;5109959;28;20046;-89
2022/08/12 14:54:35;;;;;;;3.10;1.20;;;33.70;99.90;;;;;;5108295;28;20109;-91
2022/08/12 14:57:57;;;;;;;2.47;1.05;;;34.10;99.90;;;;;;5099988;28;20050;-90
2022/08/12 15:03:52;;;;;;;4.93;1.50;;;34.30;99.90;;;;;;5118949;28;20465;-90
2022/08/12 15:06:46;;;;;;;1.70;1.20;;;34.50;99.90;;;;;;5123806;28;20133;-91
2022/08/12 15:09:39;;;;;;;1.35;1.08;;;34.10;99.90;;;;;;5110135;28;20478;-87
2022/08/12 15:12:26;;;;;;;1.50;1.00;;;33.00;99.90;;;;;;5111749;28;20093;-88
2022/08/12 15:15:18;;;;;;;3.05;1.08;;;32.40;99.90;;;;;;5119667;28;20142;-86
2022/08/12 15:18:14;;;;;;;2.28;1.10;;;31.40;99.90;;;;;;5114270;27;20071;-89
2022/08/12 15:21:06;;;;;;;7.63;1.33;;;31.70;99.90;;;;;;5107729;28;20553;-88
2022/08/12 15:24:02;;;;;;;5.85;1.10;;;32.30;99.90;;;;;;5111216;28;20055;-88
2022/08/12 15:26:57;;;;;;;1.85;1.23;;;32.80;99.90;;;;;;5111041;27;20046;-90
2022/08/12 15:29:44;;;;;;;3.17;1.10;;;32.40;99.90;;;;;;5098201;28;20527;-88
2022/08/12 15:32:38;;;;;;;2.42;1.23;;;31.90;99.90;;;;;;5110115;28;20052;-88
2022/08/12 15:35:27;;;;;;;5.20;1.15;;;31.20;99.90;;;;;;5115552;28;20035;-88
2022/08/12 15:38:30;;;;;;;5.20;1.27;;;31.60;99.90;;;;;;5093615;27;20089;-88
2022/08/12 15:41:23;;;;;;;1.75;1.10;;;31.40;99.90;;;;;;5103417;28;20044;-93
2022/08/12 15:44:10;;;;;;;3.78;1.13;;;30.10;99.90;;;;;;5110242;28;20134;-91
2022/08/12 15:47:17;;;;;;;5.93;1.20;;;29.30;99.90;;;;;;5108530;27;20104;-87
2022/08/12 15:50:15;;;;;;;2.35;1.02;;;28.20;99.90;;;;;;5109456;27;20050;-87
2022/08/12 15:53:14;;;;;;;3.38;1.25;;;27.70;99.90;;;;;;5110847;27;20046;-87
2022/08/12 15:56:06;;;;;;;7.80;1.27;;;27.20;99.90;;;;;;5122032;27;20047;-85
2022/08/12 15:59:05;;;;;;;2.47;1.13;;;26.80;99.90;;;;;;5118145;27;20049;-86
2022/08/12 16:02:14;;;;;;;4.28;1.30;;;26.30;99.90;;;;;;5026641;28;20049;-82
2022/08/12 16:05:02;;;;;;;4.85;0.98;;;26.10;99.90;;;;;;5121448;27;20047;-88
2022/08/12 16:08:21;;;;;;;1.10;1.00;;;26.10;99.90;;;;;;5108482;27;20049;-87
2022/08/12 16:11:16;;;;;;;1.60;0.98;;;25.80;99.90;;;;;;5109534;27;20477;-86
2022/08/12 16:14:22;;;;;;;4.00;1.17;;;25.60;99.90;;;;;;5111938;28;20354;-87
2022/08/12 16:17:10;;;;;;;6.70;1.17;;;25.60;99.90;;;;;;5118287;27;20055;-91
2022/08/12 16:20:02;;;;;;;4.63;1.42;;;25.70;99.90;;;;;;5115878;27;20350;-88
2022/08/12 16:22:51;;;;;;;2.45;1.05;;;26.40;99.90;;;;;;5107818;28;20047;-90
2022/08/12 16:25:41;;;;;;;4.63;1.10;;;27.60;99.90;;;;;;5114305;28;20043;-90
2022/08/12 16:28:48;;;;;;;3.47;1.02;;;28.50;99.90;;;;;;5101653;28;20136;-88
2022/08/12 16:31:39;;;;;;;5.30;1.10;;;28.70;99.90;;;;;;5107144;27;20442;-91
2022/08/12 16:34:26;;;;;;;6.47;1.00;;;28.70;99.90;;;;;;5103678;28;20081;-90
2022/08/12 16:37:34;;;;;;;5.78;1.20;;;28.80;99.90;;;;;;5118185;28;20081;-88
2022/08/12 16:40:45;;;;;;;1.92;1.13;;;28.50;99.90;;;;;;5108695;27;20134;-89
2022/08/12 16:43:33;;;;;;;3.45;1.33;;;27.80;99.90;;;;;;5116622;27;20056;-89
2022/08/12 16:46:24;;;;;;;4.95;1.40;;;27.30;99.90;;;;;;5113031;28;20055;-90
2022/08/12 16:49:18;;;;;;;2.15;1.40;;;27.00;99.90;;;;;;5117791;27;20055;-90
2022/08/12 16:52:13;;;;;;;2.60;1.20;;;26.80;99.90;;;;;;5108801;27;20051;-86
2022/08/12 16:55:02;;;;;;;6.47;1.33;;;26.70;99.90;;;;;;5110436;28;20342;-89
2022/08/12 16:57:50;;;;;;;1.23;0.90;;;26.40;99.90;;;;;;5119664;27;20047;-86
2022/08/12 17:00:42;;;;;;;3.28;0.93;;;26.20;99.90;;;;;;5118057;27;20059;-89